createdAt,value
2019-04-30T00:00:38.348Z,1.92
2019-04-30T00:03:11.596Z,1.98
2019-04-30T00:05:41.167Z,2.05
2019-04-30T00:08:09.223Z,1.92
2019-04-30T00:10:41.153Z,1.90
2019-04-30T00:13:10.414Z,1.62
2019-04-30T00:15:37.461Z,2.05
2019-04-30T00:18:07.474Z,2.00
2019-04-30T00:20:38.607Z,1.57
2019-04-30T00:23:06.333Z,2.08
2019-04-30T00:25:35.205Z,1.95
2019-04-30T00:28:05.255Z,2.08
2019-04-30T00:30:35.054Z,1.60
2019-04-30T00:33:05.648Z,1.62
2019-04-30T00:35:35.553Z,1.75
2019-04-30T00:38:05.064Z,1.90
2019-04-30T00:40:35.213Z,1.37
2019-04-30T00:43:07.543Z,2.12
2019-04-30T00:45:35.319Z,1.90
2019-04-30T00:48:05.868Z,1.70
2019-04-30T00:50:37.190Z,1.82
2019-04-30T00:53:05.895Z,1.50
2019-04-30T00:55:38.135Z,1.77
2019-04-30T00:58:05.776Z,2.00
2019-04-30T01:00:40.623Z,1.92
2019-04-30T01:03:15.405Z,1.87
2019-04-30T01:05:44.481Z,1.82
2019-04-30T01:08:15.404Z,1.92
2019-04-30T01:10:43.659Z,1.90
2019-04-30T01:13:12.135Z,2.17
2019-04-30T01:15:44.133Z,2.17
2019-04-30T01:18:10.313Z,1.70
2019-04-30T01:20:38.645Z,1.80
2019-04-30T01:23:11.316Z,1.90
2019-04-30T01:25:38.903Z,1.75
2019-04-30T01:28:08.351Z,1.82
2019-04-30T01:30:37.241Z,2.00
2019-04-30T01:33:05.369Z,1.95
2019-04-30T01:35:33.350Z,1.67
2019-04-30T01:38:04.055Z,1.62
2019-04-30T01:40:31.509Z,2.12
2019-04-30T01:42:59.475Z,1.60
2019-04-30T01:45:31.394Z,1.57
2019-04-30T01:48:00.596Z,1.57
2019-04-30T01:50:29.221Z,1.72
2019-04-30T01:52:59.076Z,1.80
2019-04-30T01:55:59.205Z,2.05
2019-04-30T01:58:39.295Z,1.55
2019-04-30T02:01:11.807Z,1.50
2019-04-30T02:03:40.133Z,2.00
2019-04-30T02:06:09.157Z,2.08
2019-04-30T02:08:39.265Z,1.60
2019-04-30T02:11:09.017Z,1.70
2019-04-30T02:13:39.123Z,2.10
2019-04-30T02:16:08.649Z,1.60
2019-04-30T02:18:36.783Z,2.12
2019-04-30T02:21:05.055Z,1.70
2019-04-30T02:23:33.043Z,1.85
2019-04-30T02:26:01.047Z,1.80
2019-04-30T02:28:29.162Z,2.10
2019-04-30T02:30:59.913Z,2.00
2019-04-30T02:33:30.646Z,2.10
2019-04-30T02:36:19.941Z,1.57
2019-04-30T02:38:50.493Z,1.60
2019-04-30T02:41:20.137Z,1.55
2019-04-30T02:43:51.226Z,1.82
2019-04-30T02:46:22.017Z,1.42
2019-04-30T02:48:52.522Z,1.60
2019-04-30T02:51:25.853Z,1.70
2019-04-30T02:56:43.658Z,1.47
2019-04-30T02:59:11.680Z,1.10
2019-04-30T03:01:40.409Z,1.50
2019-04-30T03:04:09.825Z,1.80
2019-04-30T03:06:40.242Z,1.77
2019-04-30T03:09:10.449Z,1.75
2019-04-30T03:11:40.515Z,1.42
2019-04-30T03:14:10.226Z,1.27
2019-04-30T03:16:53.127Z,1.70
2019-04-30T03:22:14.494Z,1.67
2019-04-30T03:24:43.089Z,1.55
2019-04-30T03:27:11.167Z,1.45
2019-04-30T03:29:40.466Z,1.52
2019-04-30T03:32:13.337Z,1.72
2019-04-30T03:34:42.010Z,1.60
2019-04-30T03:37:09.903Z,1.32
2019-04-30T03:39:39.939Z,2.20
2019-04-30T03:42:10.003Z,1.60
2019-04-30T03:44:40.171Z,1.57
2019-04-30T03:47:10.951Z,1.40
2019-04-30T03:49:40.265Z,1.45
2019-04-30T03:52:12.601Z,1.40
2019-04-30T03:54:40.843Z,1.45
2019-04-30T03:57:10.735Z,1.60
2019-04-30T03:59:39.676Z,1.50
2019-04-30T04:02:26.037Z,1.60
2019-04-30T04:05:01.103Z,1.52
2019-04-30T04:07:39.453Z,1.62
2019-04-30T04:10:24.325Z,1.45
2019-04-30T04:12:52.422Z,1.92
2019-04-30T04:15:20.436Z,1.40
2019-04-30T04:17:50.445Z,1.37
2019-04-30T04:20:20.260Z,1.30
2019-04-30T04:22:49.691Z,1.62
2019-04-30T04:25:20.442Z,1.75
2019-04-30T04:27:50.542Z,1.80
2019-04-30T04:30:20.291Z,1.37
2019-04-30T04:32:50.121Z,1.45
2019-04-30T04:35:19.762Z,1.30
2019-04-30T04:37:49.467Z,1.37
2019-04-30T04:40:20.699Z,1.60
2019-04-30T04:42:49.259Z,1.47
2019-04-30T04:45:19.828Z,1.20
2019-04-30T04:47:50.290Z,1.70
2019-04-30T04:50:19.881Z,1.20
2019-04-30T04:52:49.574Z,1.35
2019-04-30T04:55:21.711Z,1.30
2019-04-30T04:57:49.868Z,1.40
2019-04-30T05:00:19.417Z,1.20
2019-04-30T05:03:20.124Z,1.10
2019-04-30T05:05:49.992Z,1.22
2019-04-30T05:08:18.554Z,1.22
2019-04-30T05:10:46.649Z,1.30
2019-04-30T05:13:14.656Z,1.12
2019-04-30T05:15:42.658Z,1.10
2019-04-30T05:18:10.974Z,1.20
2019-04-30T05:20:41.524Z,1.30
2019-04-30T05:23:09.492Z,1.15
2019-04-30T05:25:38.976Z,1.05
2019-04-30T05:28:08.708Z,1.17
2019-04-30T05:30:36.837Z,0.95
2019-04-30T05:33:04.853Z,1.55
2019-04-30T05:35:32.917Z,1.17
2019-04-30T05:38:00.890Z,1.17
2019-04-30T05:40:28.956Z,1.42
2019-04-30T05:42:56.970Z,1.07
2019-04-30T05:45:25.041Z,1.20
2019-04-30T05:47:53.212Z,1.17
2019-04-30T05:50:21.194Z,1.30
2019-04-30T05:52:49.522Z,1.40
2019-04-30T05:55:19.602Z,1.00
2019-04-30T05:57:55.885Z,1.10
2019-04-30T06:00:19.156Z,0.95
2019-04-30T06:02:49.535Z,1.00
2019-04-30T06:05:18.773Z,1.05
2019-04-30T06:07:46.966Z,1.60
2019-04-30T06:10:32.568Z,1.17
2019-04-30T06:13:13.492Z,1.10
2019-04-30T06:15:59.708Z,1.05
2019-04-30T06:18:28.684Z,0.90
2019-04-30T06:20:57.136Z,1.25
2019-04-30T06:23:25.144Z,1.55
2019-04-30T06:25:59.395Z,1.40
2019-04-30T06:28:23.459Z,1.32
2019-04-30T06:30:51.912Z,1.12
2019-04-30T06:33:19.912Z,1.20
2019-04-30T06:35:49.242Z,1.07
2019-04-30T06:38:18.461Z,1.05
2019-04-30T06:40:48.734Z,1.47
2019-04-30T06:43:19.076Z,1.00
2019-04-30T06:45:50.924Z,0.90
2019-04-30T06:48:19.882Z,1.45
2019-04-30T06:50:49.237Z,0.95
2019-04-30T06:53:19.254Z,1.25
2019-04-30T06:55:49.164Z,1.12
2019-04-30T06:58:20.256Z,0.70
2019-04-30T07:00:49.490Z,1.17
2019-04-30T07:03:19.182Z,1.05
2019-04-30T07:05:48.766Z,1.00
2019-04-30T07:08:40.474Z,1.10
2019-04-30T07:11:21.608Z,0.85
2019-04-30T07:13:52.288Z,1.27
2019-04-30T07:16:19.698Z,1.40
2019-04-30T07:18:48.928Z,1.20
2019-04-30T07:21:16.968Z,1.15
2019-04-30T07:23:45.491Z,1.20
2019-04-30T07:28:49.585Z,1.20
2019-04-30T07:31:14.794Z,1.02
2019-04-30T07:33:43.011Z,1.15
2019-04-30T07:36:11.022Z,1.32
2019-04-30T07:38:45.611Z,1.00
2019-04-30T07:41:09.646Z,1.50
2019-04-30T07:43:39.389Z,1.42
2019-04-30T07:46:09.439Z,3.00
2019-04-30T07:48:39.976Z,3.37
2019-04-30T07:51:10.453Z,3.83
2019-04-30T07:53:40.174Z,4.35
2019-04-30T07:56:23.490Z,4.10
2019-04-30T07:58:39.065Z,4.67
2019-04-30T08:01:10.038Z,5.10
2019-04-30T08:03:55.417Z,4.33
2019-04-30T08:06:23.760Z,4.90
2019-04-30T08:08:57.246Z,4.97
2019-04-30T08:09:34.155Z,0.90
2019-04-30T08:11:25.774Z,5.70
2019-04-30T08:13:52.385Z,5.10
2019-04-30T08:16:21.011Z,5.17
2019-04-30T08:18:49.268Z,5.33
2019-04-30T08:21:18.983Z,5.30
2019-04-30T08:23:52.364Z,5.83
2019-04-30T08:27:09.677Z,6.55
2019-04-30T08:29:30.237Z,6.12
2019-04-30T08:31:59.314Z,6.33
2019-04-30T08:34:31.077Z,6.25
2019-04-30T08:36:59.524Z,6.70
2019-04-30T08:39:29.493Z,7.00
2019-04-30T08:41:59.888Z,6.80
2019-04-30T08:44:29.487Z,7.53
2019-04-30T08:46:59.195Z,7.25
2019-04-30T08:49:28.093Z,7.85
2019-04-30T08:51:58.695Z,7.65
2019-04-30T08:54:26.711Z,7.08
2019-04-30T08:56:54.705Z,7.85
2019-04-30T08:59:22.799Z,7.75
2019-04-30T09:01:50.895Z,7.75
2019-04-30T09:04:20.203Z,7.67
2019-04-30T09:06:49.167Z,8.25
2019-04-30T09:09:21.700Z,7.97
2019-04-30T09:11:55.160Z,7.70
2019-04-30T09:14:19.736Z,7.78
2019-04-30T09:16:49.558Z,7.92
2019-04-30T09:19:21.081Z,8.08
2019-04-30T09:21:49.243Z,8.00
2019-04-30T09:24:19.108Z,8.78
2019-04-30T09:26:49.150Z,8.08
2019-04-30T09:29:19.061Z,7.40
2019-04-30T09:31:49.200Z,7.55
2019-04-30T09:34:20.625Z,8.45
2019-04-30T09:36:49.052Z,8.35
2019-04-30T09:39:19.515Z,8.70
2019-04-30T09:41:49.599Z,8.45
2019-04-30T09:44:19.487Z,7.87
2019-04-30T09:46:48.893Z,8.18
2019-04-30T09:49:19.448Z,7.70
2019-04-30T09:51:49.610Z,7.65
2019-04-30T09:54:19.836Z,7.95
2019-04-30T09:56:49.625Z,8.95
2019-04-30T09:59:19.002Z,8.10
2019-04-30T10:01:54.939Z,8.03
2019-04-30T10:04:31.943Z,8.18
2019-04-30T10:07:00.213Z,8.20
2019-04-30T10:09:29.336Z,8.23
2019-04-30T10:12:11.563Z,7.97
2019-04-30T10:14:41.012Z,7.80
2019-04-30T10:17:28.769Z,7.33
2019-04-30T10:19:56.837Z,7.70
2019-04-30T10:22:24.807Z,8.68
2019-04-30T10:24:52.801Z,8.28
2019-04-30T10:27:21.047Z,8.03
2019-04-30T10:29:49.488Z,7.85
2019-04-30T10:32:18.684Z,8.15
2019-04-30T10:34:47.844Z,8.38
2019-04-30T10:37:16.419Z,7.40
2019-04-30T10:39:44.597Z,7.83
2019-04-30T10:42:12.761Z,7.30
2019-04-30T10:44:40.849Z,7.75
2019-04-30T10:47:10.407Z,7.72
2019-04-30T10:49:38.988Z,7.37
2019-04-30T10:52:09.205Z,7.80
2019-04-30T10:54:38.935Z,7.03
2019-04-30T10:57:08.720Z,8.80
2019-04-30T10:59:37.495Z,8.23
2019-04-30T11:02:05.979Z,8.58
2019-04-30T11:04:34.319Z,7.55
2019-04-30T11:07:02.696Z,8.08
2019-04-30T11:09:32.038Z,8.08
2019-04-30T11:12:02.865Z,8.33
2019-04-30T11:14:30.164Z,8.75
2019-04-30T11:17:00.009Z,8.98
2019-04-30T11:19:29.241Z,8.50
2019-04-30T11:21:57.686Z,8.28
2019-04-30T11:24:35.873Z,8.30
2019-04-30T11:26:56.277Z,8.33
2019-04-30T11:29:24.764Z,8.45
2019-04-30T11:31:59.114Z,8.30
2019-04-30T11:34:28.299Z,8.38
2019-04-30T11:36:56.794Z,8.43
2019-04-30T11:39:31.003Z,8.03
2019-04-30T11:42:11.383Z,7.83
2019-04-30T11:44:40.307Z,9.28
2019-04-30T11:47:26.215Z,9.53
2019-04-30T11:49:54.783Z,9.33
2019-04-30T11:52:22.989Z,7.90
2019-04-30T11:54:54.205Z,9.08
2019-04-30T11:57:21.272Z,8.50
2019-04-30T11:59:49.348Z,8.50
2019-04-30T12:02:22.202Z,9.13
2019-04-30T12:04:50.329Z,9.15
2019-04-30T12:07:25.650Z,8.20
2019-04-30T12:10:13.280Z,9.13
2019-04-30T12:12:41.254Z,9.33
2019-04-30T12:15:09.684Z,9.10
2019-04-30T12:17:38.039Z,9.18
2019-04-30T12:20:06.312Z,9.50
2019-04-30T12:22:34.364Z,8.03
2019-04-30T12:25:05.437Z,8.05
2019-04-30T12:27:32.476Z,7.85
2019-04-30T12:30:00.527Z,7.83
2019-04-30T12:32:29.856Z,8.53
2019-04-30T12:34:58.328Z,7.90
2019-04-30T12:37:26.315Z,8.13
2019-04-30T12:39:54.352Z,7.30
2019-04-30T12:42:22.658Z,7.22
2019-04-30T12:44:50.669Z,7.33
2019-04-30T12:47:21.504Z,7.75
2019-04-30T12:50:00.931Z,7.33
2019-04-30T12:52:33.823Z,7.22
2019-04-30T12:55:15.166Z,7.30
2019-04-30T12:57:41.310Z,7.37
2019-04-30T13:00:12.108Z,6.75
2019-04-30T13:02:40.311Z,6.78
2019-04-30T13:05:08.875Z,6.75
2019-04-30T13:07:39.597Z,6.75
2019-04-30T13:10:07.982Z,6.80
2019-04-30T13:12:37.199Z,7.17
2019-04-30T13:15:15.387Z,6.72
2019-04-30T13:17:49.961Z,6.83
2019-04-30T13:20:21.701Z,6.90
2019-04-30T13:22:48.876Z,6.95
2019-04-30T13:25:29.547Z,5.72
2019-04-30T13:27:51.511Z,6.75
2019-04-30T13:33:05.105Z,5.92
2019-04-30T13:35:33.694Z,6.70
2019-04-30T13:38:08.121Z,6.20
2019-04-30T13:40:52.109Z,5.87
2019-04-30T13:43:36.154Z,6.40
2019-04-30T13:46:04.235Z,6.25
2019-04-30T13:48:32.500Z,6.40
2019-04-30T13:51:01.536Z,6.00
2019-04-30T13:53:29.568Z,6.03
2019-04-30T13:55:58.935Z,6.35
2019-04-30T13:58:27.002Z,5.92
2019-04-30T14:00:55.545Z,6.15
2019-04-30T14:03:31.102Z,5.80
2019-04-30T14:06:00.072Z,6.08
2019-04-30T14:08:33.663Z,6.33
2019-04-30T14:11:01.791Z,5.45
2019-04-30T14:13:30.283Z,5.62
2019-04-30T14:15:58.529Z,5.70
2019-04-30T14:18:31.404Z,5.65
2019-04-30T14:21:00.843Z,6.42
2019-04-30T14:23:28.578Z,5.60
2019-04-30T14:25:57.075Z,5.75
2019-04-30T14:28:29.059Z,5.92
2019-04-30T14:30:56.938Z,5.60
2019-04-30T14:33:26.783Z,5.72
2019-04-30T14:35:54.860Z,5.28
2019-04-30T14:38:24.518Z,5.40
2019-04-30T14:40:53.422Z,5.85
2019-04-30T14:43:35.728Z,5.53
2019-04-30T14:46:30.144Z,5.20
2019-04-30T14:49:12.708Z,5.67
2019-04-30T14:51:39.942Z,5.78
2019-04-30T14:54:13.932Z,5.33
2019-04-30T14:56:55.548Z,4.70
2019-04-30T14:59:52.109Z,5.90
2019-04-30T15:02:29.614Z,5.28
2019-04-30T15:04:58.728Z,5.40
2019-04-30T15:07:26.855Z,5.30
2019-04-30T15:09:54.860Z,5.08
2019-04-30T15:12:23.104Z,5.42
2019-04-30T15:14:51.131Z,4.78
2019-04-30T15:17:19.180Z,5.20
2019-04-30T15:19:49.378Z,4.95
2019-04-30T15:22:18.991Z,5.25
2019-04-30T15:24:49.088Z,4.95
2019-04-30T15:27:19.016Z,5.28
2019-04-30T15:29:46.834Z,5.10
2019-04-30T15:32:14.848Z,4.90
2019-04-30T15:34:43.936Z,5.22
2019-04-30T15:37:19.286Z,5.40
2019-04-30T15:39:43.071Z,5.33
2019-04-30T15:42:12.618Z,7.53
2019-04-30T15:44:45.320Z,10.58
2019-04-30T15:47:11.023Z,14.50
2019-04-30T15:49:39.167Z,13.65
2019-04-30T15:52:08.968Z,16.57
2019-04-30T15:54:39.122Z,16.55
2019-04-30T15:57:08.928Z,15.70
2019-04-30T15:59:43.710Z,16.67
2019-04-30T16:02:22.969Z,16.85
2019-04-30T16:05:16.710Z,17.37
2019-04-30T16:08:04.676Z,16.73
2019-04-30T16:11:10.214Z,16.45
2019-04-30T16:13:55.348Z,16.75
2019-04-30T16:16:25.770Z,16.20
2019-04-30T16:18:54.070Z,16.07
2019-04-30T16:21:22.128Z,17.45
2019-04-30T16:23:50.095Z,16.27
2019-04-30T16:26:18.348Z,17.35
2019-04-30T16:28:46.442Z,17.45
2019-04-30T16:31:14.663Z,17.77
2019-04-30T16:33:48.845Z,16.60
2019-04-30T16:36:19.317Z,16.23
2019-04-30T16:38:48.658Z,16.82
2019-04-30T16:41:30.746Z,15.58
2019-04-30T16:43:48.797Z,15.28
2019-04-30T16:46:18.140Z,16.50
2019-04-30T16:48:46.174Z,16.52
2019-04-30T16:51:14.144Z,16.20
2019-04-30T16:53:42.240Z,16.32
2019-04-30T16:56:10.294Z,16.00
2019-04-30T16:58:56.820Z,15.88
2019-04-30T17:01:24.892Z,15.53
2019-04-30T17:03:55.495Z,13.93
2019-04-30T17:06:25.711Z,13.83
2019-04-30T17:09:01.410Z,12.98
2019-04-30T17:11:59.566Z,12.88
2019-04-30T17:14:28.527Z,12.23
2019-04-30T17:16:59.761Z,12.05
2019-04-30T17:19:29.153Z,12.13
2019-04-30T17:21:57.299Z,12.07
2019-04-30T17:24:25.283Z,11.50
2019-04-30T17:26:53.270Z,11.18
2019-04-30T17:29:21.837Z,11.28
2019-04-30T17:31:49.807Z,10.28
2019-04-30T17:34:17.794Z,11.45
2019-04-30T17:36:45.796Z,10.35
2019-04-30T17:39:16.779Z,9.98
2019-04-30T17:41:45.218Z,9.58
2019-04-30T17:44:13.341Z,9.90
2019-04-30T17:46:41.404Z,10.15
2019-04-30T17:49:10.147Z,9.08
2019-04-30T17:51:38.221Z,9.28
2019-04-30T17:54:13.272Z,9.73
2019-04-30T17:56:42.691Z,8.98
2019-04-30T17:59:11.752Z,8.68
2019-04-30T18:01:42.630Z,9.28
2019-04-30T18:04:10.681Z,9.73
2019-04-30T18:06:38.713Z,8.68
2019-04-30T18:09:10.735Z,8.30
2019-04-30T18:11:39.518Z,8.43
2019-04-30T18:14:08.955Z,7.60
2019-04-30T18:16:38.661Z,7.80
2019-04-30T18:19:35.593Z,7.87
2019-04-30T18:22:14.985Z,7.58
2019-04-30T18:25:01.598Z,8.20
2019-04-30T18:27:45.273Z,7.85
2019-04-30T18:30:06.543Z,7.15
2019-04-30T18:32:34.766Z,8.28
2019-04-30T18:35:03.234Z,8.13
2019-04-30T18:37:31.612Z,8.05
2019-04-30T18:40:00.160Z,7.65
2019-04-30T18:42:29.096Z,7.67
2019-04-30T18:44:57.510Z,8.18
2019-04-30T18:47:26.249Z,8.18
2019-04-30T18:49:54.818Z,7.85
2019-04-30T18:52:23.488Z,7.47
2019-04-30T18:54:51.470Z,8.85
2019-04-30T18:57:19.944Z,8.08
2019-04-30T18:59:48.667Z,8.63
2019-04-30T19:02:17.784Z,8.05
2019-04-30T19:04:45.815Z,8.05
2019-04-30T19:07:28.214Z,8.38
2019-04-30T19:12:52.108Z,7.83
2019-04-30T19:16:11.396Z,7.08
2019-04-30T19:18:30.506Z,8.00
2019-04-30T19:21:00.126Z,7.62
2019-04-30T19:23:29.100Z,8.28
2019-04-30T19:26:00.397Z,8.05
2019-04-30T19:28:28.868Z,8.03
2019-04-30T19:31:00.384Z,7.60
2019-04-30T19:33:29.235Z,6.80
2019-04-30T19:35:58.590Z,8.08
2019-04-30T19:38:27.152Z,7.35
2019-04-30T19:40:55.206Z,7.80
2019-04-30T19:43:23.252Z,7.10
2019-04-30T19:45:51.344Z,7.25
2019-04-30T19:48:19.939Z,7.25
2019-04-30T19:50:48.963Z,7.25
2019-04-30T19:53:21.815Z,5.75
2019-04-30T19:55:49.112Z,5.40
2019-04-30T19:58:26.113Z,4.60
2019-04-30T20:00:49.716Z,4.80
2019-04-30T20:03:19.589Z,4.40
2019-04-30T20:05:47.911Z,4.67
2019-04-30T20:08:16.138Z,4.35
2019-04-30T20:10:44.252Z,4.30
2019-04-30T20:13:12.542Z,3.77
2019-04-30T20:15:40.876Z,3.40
2019-04-30T20:18:09.099Z,3.70
2019-04-30T20:20:39.869Z,3.20
2019-04-30T20:23:08.234Z,3.30
2019-04-30T20:25:36.491Z,3.10
2019-04-30T20:28:04.689Z,3.20
2019-04-30T20:30:32.686Z,2.58
2019-04-30T20:33:00.838Z,2.77
2019-04-30T20:35:29.140Z,2.67
2019-04-30T20:38:28.934Z,2.80
2019-04-30T20:41:00.776Z,2.70
2019-04-30T20:43:28.546Z,2.27
2019-04-30T20:45:58.649Z,2.40
2019-04-30T20:48:26.696Z,2.15
2019-04-30T20:50:55.078Z,2.15
2019-04-30T20:53:23.466Z,2.40
2019-04-30T20:55:51.630Z,1.80
2019-04-30T20:58:19.676Z,1.80
2019-04-30T21:01:00.680Z,2.00
2019-04-30T21:03:19.609Z,1.70
2019-04-30T21:05:47.900Z,1.77
2019-04-30T21:08:15.855Z,1.62
2019-04-30T21:10:44.208Z,1.52
2019-04-30T21:13:12.398Z,1.60
2019-04-30T21:15:41.218Z,1.70
2019-04-30T21:18:09.894Z,1.60
2019-04-30T21:20:38.828Z,1.42
2019-04-30T21:23:09.397Z,1.60
2019-04-30T21:25:38.699Z,1.32
2019-04-30T21:28:09.703Z,1.20
2019-04-30T21:30:39.509Z,1.50
2019-04-30T21:33:22.303Z,1.75
2019-04-30T21:35:53.496Z,2.05
2019-04-30T21:38:21.523Z,1.82
2019-04-30T21:40:49.762Z,2.47
2019-04-30T21:43:17.876Z,1.80
2019-04-30T21:45:45.963Z,2.10
2019-04-30T21:48:13.996Z,1.80
2019-04-30T21:50:42.420Z,1.80
2019-04-30T21:53:10.460Z,2.25
2019-04-30T21:55:39.838Z,2.08
2019-04-30T21:58:09.600Z,1.92
2019-04-30T22:00:55.845Z,2.70
2019-04-30T22:03:24.941Z,1.80
2019-04-30T22:05:53.048Z,2.12
2019-04-30T22:08:21.046Z,2.10
2019-04-30T22:10:49.086Z,2.50
2019-04-30T22:13:18.495Z,2.30
2019-04-30T22:15:46.632Z,2.45
2019-04-30T22:18:14.604Z,2.30
2019-04-30T22:20:42.634Z,2.02
2019-04-30T22:23:10.653Z,2.30
2019-04-30T22:25:39.297Z,2.20
2019-04-30T22:28:07.901Z,2.00
2019-04-30T22:30:35.914Z,2.35
2019-04-30T22:33:04.118Z,2.17
2019-04-30T22:35:54.826Z,2.35
2019-04-30T22:38:28.945Z,2.20
2019-04-30T22:40:58.861Z,2.52
2019-04-30T22:43:27.044Z,2.08
2019-04-30T22:45:59.750Z,2.42
2019-04-30T22:48:28.704Z,2.25
2019-04-30T22:50:56.825Z,2.00
2019-04-30T22:53:24.863Z,2.20
2019-04-30T22:55:58.293Z,2.17
2019-04-30T22:58:26.338Z,2.20
2019-04-30T23:01:01.627Z,2.20
2019-04-30T23:03:31.770Z,2.15
2019-04-30T23:05:59.866Z,2.22
2019-04-30T23:08:27.871Z,2.45
2019-04-30T23:11:05.210Z,2.70
2019-04-30T23:13:33.254Z,2.25
2019-04-30T23:16:02.658Z,2.67
2019-04-30T23:18:32.240Z,2.40
2019-04-30T23:21:00.778Z,2.45
2019-04-30T23:23:28.920Z,2.70
2019-04-30T23:25:57.065Z,2.62
2019-04-30T23:28:25.219Z,2.58
2019-04-30T23:30:54.054Z,2.85
2019-04-30T23:33:22.156Z,2.70
2019-04-30T23:35:50.230Z,2.33
2019-04-30T23:38:18.478Z,2.27
2019-04-30T23:40:49.583Z,2.22
2019-04-30T23:43:18.557Z,2.33
2019-04-30T23:45:46.710Z,2.52
2019-04-30T23:48:14.871Z,2.35
2019-04-30T23:50:42.978Z,2.30
2019-04-30T23:53:11.434Z,2.42
2019-04-30T23:55:39.548Z,2.20
2019-04-30T23:58:07.538Z,2.37
